KOZR/OZR METAR and TAF weather

Enter ICAO airport designator
Station Type Date Time Source
KOZR METAR 2020/09/28 09:56 UTC NOAA

KOZR 280956Z AUTO 00000KT 10SM OVC004 22/22 A2988 RMK AO2 SLP118 T02230218 TSNO $


Station Type Date Time Source
KOZR Decoded METAR 2020/09/28 09:56 UTC NOAA

Cairns Army Air Field / Ozark, AL, United States (KOZR) 31-17N 085-43W
Sep 28, 2020 - 05:56 AM EDT / 2020.09.28 0956 UTC
Wind: Calm:0
Visibility: 10 mile(s):0
Sky conditions: overcast
Temperature: 72.1 F (22.3 C)
Dew Point: 71.2 F (21.8 C)
Relative Humidity: 96%
Pressure (altimeter): 29.88 in. Hg (1011 hPa)
ob: KOZR 280956Z AUTO 00000KT 10SM OVC004 22/22 A2988 RMK AO2 SLP118 T02230218 TSNO
cycle: 10

Station Type Date Time Source
KOZR TAF 2020/09/28 08:51 UTC NOAA

TAF
AMD KOZR 280840Z 2808/2914 VRB06KT 9999 OVC004 QNH2984INS
BECMG 2813/2814 VRB06KT 9999 OVC010 QNH2985INS
BECMG 2815/2816 VRB06KT 9999 OVC015 QNH2991INS
BECMG 2823/2824 19009KT 8000 -SHRA OVC015 QNH2981INS
TEMPO 2901/2904 19020G25KT 4800 -TSRA OVC015CB
BECMG 2904/2905 08006KT 9999 NSW OVC015 QNH2986INS TX29/2820Z TN16/2812Z

Example: see airport list